Weather History for Plainview, TX

Change the Weather History Date:

Sunday, March 24, 2013

  Actual Average Record
Temperature  
Mean Temperature 32 °F -  
Max Temperature 43 °F 65 °F 87 °F (1910)
Min Temperature 22 °F 37 °F 12 °F (1952)
Degree Days  
Heating Degree Days 32    
Moisture  
Dew Point 10 °F    
Average Humidity 45    
Maximum Humidity 71    
Minimum Humidity 19    
Precipitation  
Precipitation 0.00 in - - ()
Sea Level Pressure  
Sea Level Pressure 30.10 in    
Wind  
Wind Speed 19 mph (NNE)    
Max Wind Speed 31 mph    
Max Gust Speed 40 mph    
Visibility 10 miles    
Events      
Averages and records for this station are not official NWS values.
T = Trace of Precipitation, MM = Missing Value Source: NWS Daily Summary

Daily Weather History Graph

Daily Weather History Graph

Search for Another Location

Airport:

Trip Planner

Search our weather history database for the weather conditions in past years. The results will help you decide how hot, cold, wet, or windy it might be!

Date:

Astronomy

Mar. 24, 2013 Rise Set
Actual Time 7:44 AM CDT 8:01 PM CDT
Civil Twilight 7:19 AM CDT 8:26 PM CDT
Nautical Twilight 6:50 AM CDT 8:56 PM CDT
Astronomical Twilight 6:20 AM CDT 9:26 PM CDT
Moon 5:37 PM CDT (3/24) 5:49 AM CDT (3/24)
Length of Visible Light 13h 07m
Length of Day
12h 17m
Waxing Gibbous, 92% of the Moon is Illuminated
Mar 24
Waxing Gibbous
Mar 27
Full
Apr 2
Last Quarter
Apr 10
New
Apr 18
First Quarter

Hourly Weather History & Observations

Time (CDT) Temp. Windchill Dew Point Humidity Pressure Visibility Wind Dir Wind Speed Gust Speed Precip Events Conditions
12:15 AM 27.5 °F 12.9 °F 18.3 °F 68% 30.04 in 10.0 mi North 24.2 mph 31.1 mph N/A   Clear
12:35 AM 27.5 °F 13.5 °F 18.3 °F 68% 30.04 in 10.0 mi North 21.9 mph 33.4 mph N/A   Clear
12:55 AM 26.6 °F 11.7 °F 17.8 °F 69% 30.05 in 10.0 mi North 24.2 mph 36.8 mph N/A   Clear
1:15 AM 25.9 °F 10.7 °F 17.4 °F 70% 30.06 in 10.0 mi North 24.2 mph 36.8 mph N/A   Clear
1:35 AM 24.8 °F 9.3 °F 16.5 °F 71% 30.07 in 10.0 mi North 24.2 mph 33.4 mph N/A   Clear
1:55 AM 24.8 °F 7.9 °F 16.5 °F 71% 30.06 in 10.0 mi North 29.9 mph 36.8 mph N/A   Clear
2:15 AM 24.8 °F 7.6 °F 16.5 °F 71% 30.05 in 10.0 mi North 31.1 mph 38.0 mph N/A   Clear
2:35 AM 24.8 °F 8.4 °F 16.3 °F 70% 30.04 in 10.0 mi North 27.6 mph 36.8 mph N/A   Clear
2:55 AM 24.8 °F 8.4 °F 16.2 °F 70% 30.05 in 10.0 mi North 27.6 mph 39.1 mph N/A   Clear
3:15 AM 24.8 °F 9.0 °F 15.8 °F 69% 30.06 in 10.0 mi North 25.3 mph 40.3 mph N/A   Clear
3:35 AM 24.8 °F 8.4 °F 16.2 °F 70% 30.07 in 10.0 mi North 27.6 mph 36.8 mph N/A   Clear
3:55 AM 24.8 °F 9.6 °F 16.2 °F 70% 30.07 in 10.0 mi North 23.0 mph 34.5 mph N/A   Clear
4:15 AM 24.3 °F 8.6 °F 15.6 °F 70% 30.06 in 10.0 mi North 24.2 mph 33.4 mph N/A   Clear
4:35 AM 23.9 °F 8.8 °F 15.3 °F 70% 30.07 in 10.0 mi North 21.9 mph 31.1 mph N/A   Clear
4:55 AM 23.7 °F 8.9 °F 14.9 °F 69% 30.08 in 10.0 mi North 20.7 mph 28.8 mph N/A   Clear
5:15 AM 23.4 °F 9.2 °F 14.7 °F 70% 30.09 in 10.0 mi North 18.4 mph 25.3 mph N/A   Clear
5:35 AM 23.0 °F 8.0 °F 14.7 °F 71% 30.09 in 10.0 mi North 20.7 mph 26.5 mph N/A   Clear
5:55 AM 23.0 °F 8.3 °F 14.9 °F 71% 30.11 in 10.0 mi North 19.6 mph 28.8 mph N/A   Clear
6:15 AM 23.0 °F 7.6 °F 14.7 °F 71% 30.11 in 10.0 mi North 21.9 mph 28.8 mph N/A   Clear
6:35 AM 23.0 °F 8.3 °F 14.7 °F 71% 30.12 in 10.0 mi North 19.6 mph 28.8 mph N/A   Clear
7:15 AM 22.8 °F 8.5 °F 14.0 °F 69% 30.13 in 10.0 mi North 18.4 mph 23.0 mph N/A   Clear
7:35 AM 22.6 °F 7.9 °F 14.0 °F 69% 30.13 in 10.0 mi North 19.6 mph 25.3 mph N/A   Clear
7:55 AM 22.8 °F 8.5 °F 13.6 °F 68% 30.13 in 10.0 mi North 18.4 mph 26.5 mph N/A   Clear
8:15 AM 23.0 °F 9.2 °F 13.1 °F 66% 30.13 in 10.0 mi North 17.3 mph 26.5 mph N/A   Clear
8:35 AM 24.8 °F 10.3 °F 14.0 °F 64% 30.14 in 10.0 mi North 20.7 mph 27.6 mph N/A   Clear
8:55 AM 25.2 °F 11.6 °F 13.8 °F 62% 30.15 in 10.0 mi North 18.4 mph - N/A   Clear
9:15 AM 27.5 °F 14.2 °F 14.9 °F 59% 30.16 in 10.0 mi North 19.6 mph 29.9 mph N/A   Clear
9:35 AM 30.0 °F 17.5 °F 15.4 °F 55% 30.17 in 10.0 mi North 19.6 mph 27.6 mph N/A   Clear
9:55 AM 30.0 °F 15.7 °F 13.8 °F 51% 30.17 in 10.0 mi North 26.5 mph 31.1 mph N/A   Clear
10:15 AM 30.0 °F 16.6 °F 12.6 °F 48% 30.17 in 10.0 mi North 23.0 mph 29.9 mph N/A   Clear
10:35 AM 32.0 °F 19.2 °F 12.7 °F 45% 30.17 in 10.0 mi North 23.0 mph 27.6 mph N/A   Clear
10:55 AM 34.7 °F 24.0 °F 11.8 °F 39% 30.17 in 10.0 mi North 18.4 mph 27.6 mph N/A   Clear
11:15 AM 34.7 °F 22.8 °F 11.3 °F 38% 30.17 in 10.0 mi North 23.0 mph 28.8 mph N/A   Clear
11:35 AM 34.7 °F 24.7 °F 9.3 °F 35% 30.18 in 10.0 mi North 16.1 mph 28.8 mph N/A   Clear
11:55 AM 36.9 °F 27.5 °F 11.5 °F 35% 30.17 in 10.0 mi NNE 16.1 mph 25.3 mph N/A   Clear
12:15 PM 37.4 °F 28.9 °F 10.8 °F 33% 30.17 in 10.0 mi North 13.8 mph 20.7 mph N/A   Clear
12:35 PM 37.4 °F 29.3 °F 9.5 °F 32% 30.17 in 10.0 mi NNE 12.7 mph 19.6 mph N/A   Clear
12:55 PM 37.4 °F 29.8 °F 9.3 °F 31% 30.16 in 10.0 mi North 11.5 mph 17.3 mph N/A   Clear
1:15 PM 39.6 °F 32.5 °F 10.2 °F 30% 30.16 in 10.0 mi NNE 11.5 mph 24.2 mph N/A   Clear
1:35 PM 39.4 °F 33.2 °F 8.2 °F 28% 30.15 in 10.0 mi NNE 9.2 mph 18.4 mph N/A   Clear
1:55 PM 39.7 °F 35.6 °F 7.7 °F 27% 30.14 in 10.0 mi NNE 5.8 mph 16.1 mph N/A   Clear
2:15 PM 39.7 °F 36.5 °F 6.6 °F 25% 30.13 in 10.0 mi ENE 4.6 mph - N/A   Clear
2:35 PM 40.5 °F 34.6 °F 7.2 °F 25% 30.12 in 10.0 mi NE 9.2 mph - N/A   Clear
2:55 PM 40.6 °F 34.8 °F 6.4 °F 24% 30.11 in 10.0 mi North 9.2 mph - N/A   Clear
3:15 PM 40.3 °F 34.9 °F 5.7 °F 24% 30.09 in 10.0 mi North 8.1 mph - N/A   Clear
3:35 PM 41.2 °F 39.2 °F 5.9 °F 23% 30.09 in 10.0 mi SE 3.5 mph - N/A   Clear
3:55 PM 42.3 °F 38.6 °F 6.4 °F 23% 30.07 in 10.0 mi NNE 5.8 mph - N/A   Clear
4:15 PM 42.4 °F 40.7 °F 4.8 °F 21% 30.07 in 10.0 mi NE 3.5 mph - N/A   Clear
4:35 PM 43.2 °F - 4.8 °F 21% 30.06 in 10.0 mi Calm Calm - N/A   Clear
4:55 PM 42.3 °F 40.5 °F 3.6 °F 20% 30.06 in 10.0 mi North 3.5 mph - N/A   Clear
5:15 PM 43.3 °F 38.6 °F 3.4 °F 19% 30.05 in 10.0 mi East 8.1 mph - N/A   Clear
5:35 PM 42.6 °F 39.0 °F 3.2 °F 20% 30.05 in 10.0 mi East 5.8 mph - N/A   Clear
5:55 PM 42.3 °F - 2.5 °F 19% 30.05 in 10.0 mi Calm Calm - N/A   Clear
6:15 PM 42.8 °F 40.1 °F 2.7 °F 19% 30.05 in 10.0 mi East 4.6 mph - N/A   Clear
6:35 PM 42.3 °F 37.3 °F 2.3 °F 19% 30.04 in 10.0 mi NE 8.1 mph - N/A   Clear
6:55 PM 42.3 °F 37.3 °F 2.1 °F 19% 30.04 in 10.0 mi East 8.1 mph - N/A   Clear
7:15 PM 42.3 °F 38.6 °F 3.2 °F 20% 30.04 in 10.0 mi East 5.8 mph - N/A   Clear
7:35 PM 41.0 °F 36.4 °F 3.7 °F 21% 30.04 in 10.0 mi ESE 6.9 mph - N/A   Clear
7:55 PM 39.7 °F 33.7 °F 4.3 °F 23% 30.04 in 10.0 mi East 9.2 mph - N/A   Clear
8:15 PM 37.6 °F 30.5 °F 4.6 °F 25% 30.05 in 10.0 mi East 10.4 mph - N/A   Clear
8:35 PM 37.4 °F 30.3 °F 5.5 °F 27% 30.05 in 10.0 mi East 10.4 mph - N/A   Clear
8:55 PM 36.0 °F 28.5 °F 6.4 °F 29% 30.06 in 10.0 mi East 10.4 mph - N/A   Clear
9:15 PM 34.7 °F 26.9 °F 5.9 °F 30% 30.08 in 10.0 mi East 10.4 mph - N/A   Clear
9:35 PM 34.7 °F 26.4 °F 7.7 °F 32% 30.09 in 10.0 mi East 11.5 mph - N/A   Clear
9:55 PM 34.7 °F 26.9 °F 8.4 °F 33% 30.10 in 10.0 mi East 10.4 mph - N/A   Clear
10:15 PM 34.7 °F 25.9 °F 8.4 °F 33% 30.11 in 10.0 mi East 12.7 mph - N/A   Clear
10:35 PM 34.7 °F 25.9 °F 8.6 °F 34% 30.12 in 10.0 mi East 12.7 mph - N/A   Clear
10:55 PM 32.2 °F 23.2 °F 7.9 °F 36% 30.13 in 10.0 mi East 11.5 mph - N/A   Clear
11:15 PM 32.2 °F 22.3 °F 9.1 °F 38% 30.15 in 10.0 mi East 13.8 mph - N/A   Clear
11:35 PM 31.3 °F 21.6 °F 8.8 °F 39% 30.15 in 10.0 mi East 12.7 mph 17.3 mph N/A   Clear
11:55 PM 30.2 °F 20.2 °F 9.0 °F 41% 30.16 in 10.0 mi ENE 12.7 mph - N/A   Clear